Time;durP1;ratioP1;P1;durP2;ratioP2;P2;SDS_P1;SDS_P2;PMS_P1;PMS_P2;Temp;Humidity;BMP_temperature;BMP_pressure;BME280_temperature;BME280_humidity;BME280_pressure;Samples;Min_cycle;Max_cycle;Signal;HPM_P1;HPM_P2
2022/04/11 00:00:35;;;;;;;5.22;2.40;;;1.90;99.90;;;;;;5032762;28;21017;-80
2022/04/11 00:03:01;;;;;;;8.13;2.47;;;1.80;99.90;;;;;;5031550;28;20403;-80
2022/04/11 00:05:27;;;;;;;6.25;2.40;;;1.90;99.90;;;;;;5050239;28;20066;-80
2022/04/11 00:07:52;;;;;;;4.80;2.30;;;1.90;99.90;;;;;;5034894;28;20045;-80
2022/04/11 00:10:18;;;;;;;6.57;2.10;;;1.80;99.90;;;;;;5028010;28;20033;-80
2022/04/11 00:12:44;;;;;;;4.55;2.33;;;1.80;99.90;;;;;;5024272;28;20476;-80
2022/04/11 00:15:11;;;;;;;5.35;2.40;;;1.80;99.90;;;;;;5029343;28;20079;-79
2022/04/11 00:17:37;;;;;;;6.50;2.03;;;2.00;99.90;;;;;;5029860;28;20067;-79
2022/04/11 00:20:05;;;;;;;4.85;2.40;;;1.70;99.90;;;;;;5031521;28;20143;-80
2022/04/11 00:22:34;;;;;;;4.45;2.35;;;1.70;99.90;;;;;;5032012;28;20086;-80
2022/04/11 00:25:00;;;;;;;8.90;2.50;;;2.40;99.90;;;;;;5031264;28;20439;-80
2022/04/11 00:27:25;;;;;;;5.93;2.17;;;1.60;99.90;;;;;;5044176;28;20163;-80
2022/04/11 00:29:51;;;;;;;5.18;2.03;;;2.40;99.90;;;;;;5029215;28;20048;-80
2022/04/11 00:32:17;;;;;;;5.07;2.42;;;1.60;99.90;;;;;;5045533;28;20036;-81
2022/04/11 00:34:44;;;;;;;10.30;2.20;;;1.50;99.90;;;;;;5028398;28;20098;-80
2022/04/11 00:37:09;;;;;;;5.60;2.05;;;1.50;99.90;;;;;;5028381;28;20036;-80
2022/04/11 00:39:35;;;;;;;4.25;1.80;;;1.40;99.90;;;;;;5025127;28;20064;-80
2022/04/11 00:42:12;;;;;;;3.15;1.98;;;1.40;99.90;;;;;;5045988;28;20147;-80
2022/04/11 00:44:38;;;;;;;4.97;2.20;;;1.40;99.90;;;;;;5026877;28;20036;-79
2022/04/11 00:47:04;;;;;;;7.13;2.40;;;1.40;99.90;;;;;;5027704;28;20122;-80
2022/04/11 00:49:29;;;;;;;4.60;2.40;;;1.20;99.90;;;;;;5025620;28;20028;-80
2022/04/11 00:51:56;;;;;;;6.07;2.30;;;1.30;99.90;;;;;;5030800;28;20509;-80
2022/04/11 00:54:22;;;;;;;3.88;2.08;;;2.10;99.90;;;;;;5032272;28;20086;-80
2022/04/11 00:56:49;;;;;;;5.53;2.00;;;1.20;99.90;;;;;;5050239;28;20044;-79
2022/04/11 00:59:15;;;;;;;3.10;1.95;;;1.80;99.90;;;;;;5045489;28;20040;-80
2022/04/11 01:01:41;;;;;;;3.60;2.17;;;1.20;99.90;;;;;;5029267;28;20152;-80
2022/04/11 01:04:23;;;;;;;7.53;3.08;;;2.00;99.90;;;;;;5046081;28;20040;-80
2022/04/11 01:06:55;;;;;;;8.90;3.40;;;1.10;99.90;;;;;;5010661;28;20048;-81
2022/04/11 01:09:24;;;;;;;8.20;4.00;;;1.10;99.90;;;;;;5048487;28;20094;-80
2022/04/11 01:11:51;;;;;;;8.43;3.90;;;1.00;99.90;;;;;;5029106;28;20050;-79
2022/04/11 01:14:17;;;;;;;9.18;3.78;;;1.50;99.90;;;;;;5029031;28;20044;-80
2022/04/11 01:16:48;;;;;;;7.32;4.18;;;1.00;99.90;;;;;;5028149;28;20036;-80
2022/04/11 01:19:13;;;;;;;11.82;4.65;;;0.90;99.90;;;;;;5027494;28;20041;-80
2022/04/11 01:21:39;;;;;;;9.73;4.75;;;1.00;99.90;;;;;;5044347;28;20143;-80
2022/04/11 01:24:05;;;;;;;13.48;4.95;;;1.90;99.90;;;;;;5037044;28;20048;-80
2022/04/11 01:26:32;;;;;;;10.10;4.75;;;0.90;99.90;;;;;;5031936;28;20359;-81
2022/04/11 01:28:57;;;;;;;9.13;4.90;;;0.90;99.90;;;;;;5057646;28;20041;-79
2022/04/11 01:31:25;;;;;;;12.27;5.15;;;0.80;99.90;;;;;;5050582;28;20093;-80
2022/04/11 01:33:51;;;;;;;11.43;4.43;;;1.60;99.90;;;;;;5026470;28;20066;-79
2022/04/11 01:36:18;;;;;;;8.50;4.18;;;0.70;99.90;;;;;;5030125;28;20064;-80
2022/04/11 01:38:43;;;;;;;8.30;5.07;;;0.80;99.90;;;;;;5043984;28;20102;-80
2022/04/11 01:41:09;;;;;;;10.68;4.63;;;1.00;99.90;;;;;;5043146;28;20308;-80
2022/04/11 01:43:35;;;;;;;11.02;4.28;;;0.80;99.90;;;;;;5027304;28;20041;-79
2022/04/11 01:46:01;;;;;;;8.93;4.00;;;0.80;99.90;;;;;;5022636;28;20118;-80
2022/04/11 01:48:26;;;;;;;7.05;4.00;;;0.80;99.90;;;;;;5028822;28;20064;-80
2022/04/11 01:50:52;;;;;;;9.98;3.90;;;0.80;99.90;;;;;;5041812;28;20036;-80
2022/04/11 01:53:20;;;;;;;9.10;3.70;;;1.70;99.90;;;;;;5045425;28;20040;-81
2022/04/11 01:55:46;;;;;;;8.73;3.75;;;0.70;99.90;;;;;;5027788;28;20040;-81
2022/04/11 01:58:13;;;;;;;7.93;3.85;;;1.60;99.90;;;;;;5037619;28;20070;-80
2022/04/11 02:00:39;;;;;;;9.15;3.97;;;0.60;99.90;;;;;;5029380;28;20051;-80
2022/04/11 02:03:07;;;;;;;9.23;4.10;;;0.80;99.90;;;;;;5027684;28;20066;-80
2022/04/11 02:05:33;;;;;;;7.05;3.60;;;0.70;99.90;;;;;;5048413;28;20048;-80
2022/04/11 02:07:59;;;;;;;7.60;3.47;;;0.70;99.90;;;;;;5034094;28;20143;-79
2022/04/11 02:10:25;;;;;;;8.88;3.45;;;0.70;99.90;;;;;;5030544;28;20037;-80
2022/04/11 02:12:53;;;;;;;8.50;3.55;;;0.70;99.90;;;;;;5030479;28;20412;-80
2022/04/11 02:15:20;;;;;;;7.40;3.58;;;0.70;99.90;;;;;;5034630;28;20028;-81
2022/04/11 02:17:50;;;;;;;5.97;3.22;;;0.70;99.90;;;;;;5034183;28;20413;-80
2022/04/11 02:20:16;;;;;;;8.40;3.42;;;0.60;99.90;;;;;;5032795;28;20127;-80
2022/04/11 02:22:50;;;;;;;9.65;3.67;;;0.70;99.90;;;;;;5050406;28;20120;-80
2022/04/11 02:25:17;;;;;;;10.60;3.33;;;0.70;99.90;;;;;;5050645;28;20044;-80
2022/04/11 02:27:44;;;;;;;10.77;3.20;;;0.70;99.90;;;;;;5033302;28;20127;-80
2022/04/11 02:30:12;;;;;;;6.13;2.90;;;0.80;99.90;;;;;;5050808;28;20056;-80
2022/04/11 02:32:38;;;;;;;7.05;2.88;;;0.70;99.90;;;;;;5052965;28;20048;-80
2022/04/11 02:35:05;;;;;;;9.35;3.15;;;0.70;99.90;;;;;;5051171;28;20396;-80
2022/04/11 02:37:30;;;;;;;6.90;3.00;;;0.70;99.90;;;;;;5052853;28;20045;-81
2022/04/11 02:39:56;;;;;;;10.27;3.47;;;0.60;99.90;;;;;;5035570;28;20458;-80
2022/04/11 02:42:26;;;;;;;9.63;2.90;;;0.60;99.90;;;;;;5051649;28;20538;-80
2022/04/11 02:44:52;;;;;;;4.35;2.60;;;0.60;99.90;;;;;;5034884;28;20040;-79
2022/04/11 02:47:19;;;;;;;7.20;3.05;;;0.60;99.90;;;;;;5036134;28;20052;-80
2022/04/11 02:49:45;;;;;;;6.63;2.90;;;0.60;99.90;;;;;;5040030;28;20040;-80
2022/04/11 02:52:11;;;;;;;4.90;2.67;;;0.50;99.90;;;;;;5039767;28;20410;-80
2022/04/11 02:54:37;;;;;;;7.22;3.17;;;0.50;99.90;;;;;;5045790;28;20056;-80
2022/04/11 02:57:04;;;;;;;7.82;3.58;;;0.50;99.90;;;;;;5053959;28;20051;-78
2022/04/11 02:59:30;;;;;;;8.77;3.05;;;0.50;99.90;;;;;;5038862;28;20052;-79
2022/04/11 03:01:56;;;;;;;4.65;3.15;;;0.50;99.90;;;;;;5056218;28;20067;-79
2022/04/11 03:04:22;;;;;;;9.13;3.70;;;1.30;99.90;;;;;;5073053;28;20094;-79
2022/04/11 03:06:48;;;;;;;11.52;4.32;;;0.50;99.90;;;;;;5038771;28;20041;-80
2022/04/11 03:09:13;;;;;;;7.45;3.50;;;0.50;99.90;;;;;;5039129;28;20072;-78
2022/04/11 03:11:39;;;;;;;6.72;3.50;;;0.40;99.90;;;;;;5020234;28;20064;-80
2022/04/11 03:14:05;;;;;;;8.85;3.80;;;0.50;99.90;;;;;;5035384;28;20040;-80
2022/04/11 03:16:31;;;;;;;7.55;3.75;;;0.50;99.90;;;;;;5055453;28;20040;-80
2022/04/11 03:18:57;;;;;;;8.00;3.47;;;0.50;99.90;;;;;;5038813;28;20117;-81
2022/04/11 03:21:22;;;;;;;7.28;3.60;;;0.50;99.90;;;;;;5038285;28;20152;-81
2022/04/11 03:23:48;;;;;;;7.35;4.63;;;0.50;99.90;;;;;;5040877;28;20036;-80
2022/04/11 03:26:14;;;;;;;12.98;4.57;;;0.80;99.90;;;;;;5025506;28;20042;-80
2022/04/11 03:28:40;;;;;;;13.20;5.30;;;0.50;99.90;;;;;;5041628;28;20380;-80
2022/04/11 03:31:05;;;;;;;12.02;5.15;;;0.60;99.90;;;;;;5050424;28;20420;-80
2022/04/11 03:33:31;;;;;;;11.43;4.93;;;0.70;99.90;;;;;;5027936;28;20455;-80
2022/04/11 03:35:57;;;;;;;10.13;4.95;;;0.80;99.90;;;;;;5034946;28;20451;-79
2022/04/11 03:38:22;;;;;;;10.25;5.20;;;0.80;99.90;;;;;;5054546;28;20060;-79
2022/04/11 03:40:48;;;;;;;10.20;4.70;;;0.90;99.90;;;;;;5051596;28;20045;-79
2022/04/11 03:43:14;;;;;;;9.02;4.70;;;1.00;99.90;;;;;;5051762;28;20127;-79
2022/04/11 03:45:39;;;;;;;8.10;4.47;;;1.00;99.90;;;;;;5034301;28;20044;-80
2022/04/11 03:48:05;;;;;;;10.70;4.40;;;1.10;99.90;;;;;;5035457;28;20136;-80
2022/04/11 03:50:31;;;;;;;10.52;4.68;;;1.10;99.90;;;;;;5034858;28;20032;-79
2022/04/11 03:52:56;;;;;;;8.40;3.95;;;1.20;99.90;;;;;;5035002;28;20529;-79
2022/04/11 03:55:23;;;;;;;7.88;3.75;;;1.20;99.90;;;;;;5034192;28;20033;-80
2022/04/11 03:57:49;;;;;;;9.32;4.15;;;1.20;99.90;;;;;;5034811;28;20179;-80
2022/04/11 04:00:16;;;;;;;9.25;4.03;;;1.80;99.90;;;;;;5050527;28;20123;-80
2022/04/11 04:02:44;;;;;;;7.15;3.90;;;1.30;99.90;;;;;;5035666;28;20040;-78
2022/04/11 04:05:10;;;;;;;11.10;4.10;;;1.40;99.90;;;;;;5050298;28;20037;-80
2022/04/11 04:07:36;;;;;;;10.48;3.85;;;1.40;99.90;;;;;;5034189;28;20041;-80
2022/04/11 04:10:05;;;;;;;6.43;3.70;;;1.50;99.90;;;;;;5033836;28;20167;-80
2022/04/11 04:12:31;;;;;;;8.23;3.42;;;1.50;99.90;;;;;;5034577;28;20055;-80
2022/04/11 04:14:57;;;;;;;9.45;3.67;;;1.50;99.90;;;;;;5050821;28;20149;-80
2022/04/11 04:17:23;;;;;;;7.75;3.78;;;1.60;99.90;;;;;;5034106;28;20064;-80
2022/04/11 04:19:49;;;;;;;9.15;4.55;;;1.60;99.90;;;;;;5035327;28;20052;-80
2022/04/11 04:22:15;;;;;;;9.55;4.05;;;1.70;99.90;;;;;;5052149;28;20041;-81
2022/04/11 04:24:41;;;;;;;7.20;4.10;;;1.70;99.90;;;;;;5051639;28;20448;-80
2022/04/11 04:27:07;;;;;;;8.05;4.05;;;1.70;99.90;;;;;;5035236;28;20387;-81
2022/04/11 04:29:33;;;;;;;12.02;4.70;;;2.40;99.90;;;;;;5034840;28;20072;-80
2022/04/11 04:32:00;;;;;;;11.88;4.90;;;1.90;99.90;;;;;;5033106;28;20047;-80
2022/04/11 04:34:26;;;;;;;9.57;4.43;;;1.80;99.90;;;;;;5047234;28;20044;-80
2022/04/11 04:36:53;;;;;;;13.60;5.15;;;2.50;99.90;;;;;;5031061;28;20029;-80
2022/04/11 04:39:19;;;;;;;10.98;4.65;;;1.80;99.90;;;;;;5033081;28;20045;-81
2022/04/11 04:41:44;;;;;;;12.30;4.88;;;2.30;99.90;;;;;;5033696;28;20094;-80
2022/04/11 04:44:10;;;;;;;13.85;4.80;;;1.80;99.90;;;;;;5034085;28;20040;-81
2022/04/11 04:46:36;;;;;;;9.10;4.43;;;2.20;99.90;;;;;;5033219;28;20398;-80
2022/04/11 04:49:02;;;;;;;8.85;4.85;;;1.90;99.90;;;;;;5032591;28;20095;-80
2022/04/11 04:51:28;;;;;;;8.93;4.18;;;1.90;99.90;;;;;;5034603;28;20131;-81
2022/04/11 04:53:55;;;;;;;10.35;4.90;;;1.90;99.90;;;;;;5033890;28;20779;-80
2022/04/11 04:56:20;;;;;;;8.95;4.32;;;2.00;99.90;;;;;;5034356;28;20442;-81
2022/04/11 04:58:46;;;;;;;14.90;4.60;;;1.70;99.90;;;;;;5033858;28;20041;-80
2022/04/11 05:01:15;;;;;;;9.82;4.30;;;2.10;99.90;;;;;;5033304;28;20045;-80
2022/04/11 05:03:41;;;;;;;9.85;4.05;;;2.10;99.90;;;;;;5033878;28;20037;-80
2022/04/11 05:06:10;;;;;;;8.27;4.00;;;2.10;99.90;;;;;;5032301;28;20037;-78
2022/04/11 05:08:35;;;;;;;7.38;4.18;;;2.60;99.90;;;;;;5047870;28;20083;-79
2022/04/11 05:11:01;;;;;;;10.07;4.20;;;2.20;99.90;;;;;;5030858;28;20049;-80
2022/04/11 05:13:27;;;;;;;6.75;4.05;;;2.20;99.90;;;;;;5032532;28;20071;-80
2022/04/11 05:15:53;;;;;;;11.35;3.92;;;2.30;99.90;;;;;;5048555;28;20060;-80
2022/04/11 05:18:19;;;;;;;11.90;3.40;;;3.20;99.90;;;;;;5048616;28;20041;-79
2022/04/11 05:20:45;;;;;;;11.85;4.30;;;2.50;99.90;;;;;;5043733;28;20459;-81
2022/04/11 05:23:10;;;;;;;9.43;3.60;;;2.60;99.90;;;;;;5029867;28;20135;-82
2022/04/11 05:25:37;;;;;;;7.95;3.65;;;3.30;99.90;;;;;;5045186;28;20037;-81
2022/04/11 05:28:03;;;;;;;6.47;4.03;;;3.30;99.90;;;;;;5046153;28;20045;-81
2022/04/11 05:30:33;;;;;;;7.97;3.90;;;2.70;99.90;;;;;;5042249;28;20052;-81
2022/04/11 05:33:00;;;;;;;10.90;4.15;;;2.70;99.90;;;;;;5046250;28;20132;-81
2022/04/11 05:35:26;;;;;;;15.82;5.38;;;2.80;99.90;;;;;;5043489;28;20491;-82
2022/04/11 05:41:17;;;;;;;10.13;5.03;;;2.90;99.90;;;;;;5045285;28;20050;-82
2022/04/11 05:43:43;;;;;;;9.23;5.13;;;3.00;99.90;;;;;;5030761;28;20057;-81
2022/04/11 05:46:09;;;;;;;9.75;4.72;;;3.10;99.90;;;;;;5044144;28;20451;-82
2022/04/11 05:48:36;;;;;;;14.43;5.10;;;3.80;99.90;;;;;;5047284;28;20045;-82
2022/04/11 05:51:02;;;;;;;10.60;5.00;;;4.10;99.90;;;;;;5042580;28;20521;-80
2022/04/11 05:53:31;;;;;;;6.88;4.22;;;3.70;99.90;;;;;;5044545;28;20037;-82
2022/04/11 05:55:57;;;;;;;13.77;4.88;;;3.20;99.90;;;;;;5030621;28;20123;-82
2022/04/11 05:58:22;;;;;;;12.32;5.07;;;3.70;99.90;;;;;;5027894;28;20049;-83
2022/04/11 06:00:48;;;;;;;13.63;5.18;;;3.40;99.90;;;;;;5026433;28;20037;-83
2022/04/11 06:03:13;;;;;;;10.95;4.10;;;3.70;99.90;;;;;;5048969;28;20071;-79
2022/04/11 06:05:39;;;;;;;15.40;4.82;;;3.50;99.90;;;;;;5043730;28;20045;-80
2022/04/11 06:08:05;;;;;;;12.02;4.35;;;3.60;99.90;;;;;;5043145;28;20059;-80
2022/04/11 06:10:32;;;;;;;8.30;4.25;;;3.60;99.90;;;;;;5027752;28;20053;-80
2022/04/11 06:12:58;;;;;;;8.88;4.60;;;3.70;99.90;;;;;;5042065;28;20032;-81
2022/04/11 06:15:23;;;;;;;8.65;4.07;;;3.70;99.90;;;;;;5025823;28;20423;-81
2022/04/11 06:17:49;;;;;;;9.48;3.65;;;3.70;99.90;;;;;;5028591;28;20454;-80
2022/04/11 06:20:15;;;;;;;6.07;3.80;;;3.80;99.90;;;;;;5030404;28;20048;-81
2022/04/11 06:22:41;;;;;;;9.77;3.40;;;3.90;99.90;;;;;;5031081;28;20098;-81
2022/04/11 06:25:08;;;;;;;10.25;3.53;;;3.80;99.90;;;;;;5046587;28;20391;-82
2022/04/11 06:27:35;;;;;;;8.48;3.80;;;3.90;99.90;;;;;;5047504;28;20055;-80
2022/04/11 06:30:00;;;;;;;13.27;3.75;;;4.00;99.90;;;;;;5042604;28;20091;-80
2022/04/11 06:32:27;;;;;;;8.35;3.30;;;4.10;99.90;;;;;;5045282;28;20495;-81
2022/04/11 06:34:53;;;;;;;8.63;3.30;;;4.10;99.90;;;;;;5027492;28;20038;-80
2022/04/11 06:37:21;;;;;;;11.75;3.40;;;4.90;99.90;;;;;;5030336;28;20044;-80
2022/04/11 06:39:47;;;;;;;7.53;3.65;;;4.30;99.90;;;;;;5046008;28;20049;-82
2022/04/11 06:42:13;;;;;;;6.57;3.17;;;4.40;99.90;;;;;;5046943;28;20033;-82
2022/04/11 06:44:40;;;;;;;6.78;2.90;;;4.50;99.90;;;;;;5030490;28;20344;-83
2022/04/11 06:47:06;;;;;;;6.47;2.92;;;5.20;99.90;;;;;;5030628;28;20510;-81
2022/04/11 06:49:32;;;;;;;5.60;2.92;;;4.70;99.90;;;;;;5047780;28;20076;-83
2022/04/11 06:51:58;;;;;;;8.73;3.50;;;4.90;99.90;;;;;;5032272;28;20858;-83
2022/04/11 06:54:23;;;;;;;5.25;3.15;;;4.90;99.90;;;;;;5047838;28;20175;-83
2022/04/11 06:56:49;;;;;;;11.55;3.35;;;5.10;99.90;;;;;;5047134;28;20103;-83
2022/04/11 06:59:15;;;;;;;10.90;3.25;;;5.90;99.90;;;;;;5045630;28;20044;-84
2022/04/11 07:01:41;;;;;;;9.15;3.20;;;5.50;99.90;;;;;;5031693;28;20075;-83
2022/04/11 07:04:07;;;;;;;14.15;3.30;;;5.70;99.90;;;;;;5031077;28;20079;-81
2022/04/11 07:06:33;;;;;;;9.13;3.15;;;5.70;99.90;;;;;;5030783;28;20049;-81
2022/04/11 07:08:58;;;;;;;9.13;3.38;;;5.80;99.90;;;;;;5049500;28;20136;-83
2022/04/11 07:11:24;;;;;;;11.82;4.05;;;5.90;99.90;;;;;;5048046;28;20052;-83
2022/04/11 07:13:50;;;;;;;9.68;3.13;;;6.00;99.90;;;;;;5049449;28;20064;-80
2022/04/11 07:16:15;;;;;;;9.98;2.83;;;6.70;99.90;;;;;;5032761;28;20507;-78
2022/04/11 07:18:43;;;;;;;10.82;3.33;;;6.10;99.90;;;;;;5049079;28;20451;-82
2022/04/11 07:21:09;;;;;;;9.93;2.90;;;6.40;99.90;;;;;;5030750;28;20057;-79
2022/04/11 07:23:35;;;;;;;5.82;3.13;;;6.30;99.90;;;;;;5030597;28;20048;-79
2022/04/11 07:26:01;;;;;;;8.55;2.53;;;6.40;99.90;;;;;;5049025;28;20056;-79
2022/04/11 07:28:26;;;;;;;5.45;3.00;;;6.50;99.90;;;;;;5031609;28;20056;-79
2022/04/11 07:30:52;;;;;;;6.05;2.30;;;6.60;99.90;;;;;;5048614;28;20033;-80
2022/04/11 07:33:18;;;;;;;7.55;2.40;;;6.70;99.90;;;;;;5050170;28;20516;-82
2022/04/11 07:35:44;;;;;;;6.43;1.95;;;6.80;99.90;;;;;;5051542;28;20036;-81
2022/04/11 07:38:10;;;;;;;7.07;2.03;;;6.80;99.90;;;;;;5052829;28;20040;-81
2022/04/11 07:40:35;;;;;;;4.93;1.90;;;6.90;99.90;;;;;;5037126;28;20184;-82
2022/04/11 07:43:01;;;;;;;5.60;2.10;;;7.10;99.90;;;;;;5036531;28;20057;-82
2022/04/11 07:45:28;;;;;;;8.45;1.77;;;7.60;99.90;;;;;;5051831;28;20032;-82
2022/04/11 07:47:54;;;;;;;7.43;1.83;;;7.40;99.90;;;;;;5049640;28;20063;-82
2022/04/11 07:50:19;;;;;;;3.97;1.70;;;7.40;99.90;;;;;;5047287;28;20373;-79
2022/04/11 07:52:45;;;;;;;22.40;2.50;;;8.10;99.90;;;;;;5035184;28;20079;-79
2022/04/11 07:55:12;;;;;;;11.77;1.80;;;8.60;99.90;;;;;;5031845;28;20136;-79
2022/04/11 07:57:39;;;;;;;5.65;1.60;;;9.10;99.90;;;;;;5045877;28;20155;-79
2022/04/11 08:00:06;;;;;;;6.05;1.55;;;9.40;99.90;;;;;;5035042;28;20088;-80
2022/04/11 08:02:33;;;;;;;3.65;1.42;;;10.10;99.90;;;;;;5051124;28;20349;-79
2022/04/11 08:05:05;;;;;;;4.30;1.45;;;10.80;99.90;;;;;;5052108;28;20061;-78
2022/04/11 08:07:32;;;;;;;6.10;1.85;;;11.10;99.90;;;;;;5051315;28;20120;-82
2022/04/11 08:10:08;;;;;;;7.75;1.88;;;11.40;99.90;;;;;;5032182;28;20037;-83
2022/04/11 08:12:33;;;;;;;4.72;1.60;;;10.70;99.90;;;;;;5028546;28;20034;-82
2022/04/11 08:14:59;;;;;;;5.72;1.63;;;10.70;99.90;;;;;;5014931;28;20050;-82
2022/04/11 08:17:25;;;;;;;6.68;1.98;;;10.20;99.90;;;;;;5043238;28;20525;-79
2022/04/11 08:19:51;;;;;;;8.73;2.05;;;10.00;99.90;;;;;;5051694;28;20035;-79
2022/04/11 08:22:20;;;;;;;4.13;1.70;;;10.60;99.90;;;;;;5027755;28;20041;-85
2022/04/11 08:24:45;;;;;;;4.72;1.67;;;10.30;99.90;;;;;;5049992;28;20037;-83
2022/04/11 08:27:11;;;;;;;8.43;1.80;;;10.30;99.90;;;;;;5050641;28;20136;-83
2022/04/11 08:29:37;;;;;;;6.30;1.80;;;10.20;99.90;;;;;;5055757;28;20053;-81
2022/04/11 08:32:03;;;;;;;5.18;1.70;;;10.00;99.90;;;;;;5067303;28;20377;-82
2022/04/11 08:34:29;;;;;;;7.03;1.70;;;9.70;99.90;;;;;;5052414;28;20474;-82
2022/04/11 08:36:54;;;;;;;4.93;1.75;;;9.50;99.90;;;;;;5052857;28;20059;-81
2022/04/11 08:39:20;;;;;;;6.97;1.77;;;9.30;99.90;;;;;;5051834;28;20326;-82
2022/04/11 08:41:45;;;;;;;8.40;2.10;;;9.20;99.90;;;;;;5071074;28;20041;-81
2022/04/11 08:44:13;;;;;;;9.38;2.10;;;9.30;99.90;;;;;;5051882;28;20064;-82
2022/04/11 08:46:40;;;;;;;8.95;2.22;;;9.70;99.90;;;;;;5038800;28;20052;-81
2022/04/11 08:49:06;;;;;;;7.10;2.00;;;9.10;99.90;;;;;;5038664;28;20055;-81
2022/04/11 08:51:34;;;;;;;6.82;2.38;;;9.70;99.90;;;;;;5054420;28;20461;-82
2022/04/11 08:54:01;;;;;;;8.48;2.35;;;9.20;99.90;;;;;;5071623;28;20117;-82
2022/04/11 08:56:29;;;;;;;6.05;2.40;;;9.20;99.90;;;;;;5053281;28;20131;-87
2022/04/11 08:58:55;;;;;;;5.32;2.20;;;9.30;99.90;;;;;;5047853;28;20048;-83
2022/04/11 09:01:22;;;;;;;9.75;1.75;;;9.70;99.90;;;;;;5049629;28;20060;-81
2022/04/11 09:03:48;;;;;;;5.47;1.77;;;9.40;99.90;;;;;;5031008;28;20033;-80
2022/04/11 09:06:15;;;;;;;5.35;1.95;;;10.10;99.90;;;;;;5030876;28;20056;-81
2022/04/11 09:08:56;;;;;;;10.45;2.03;;;9.40;99.90;;;;;;5033097;28;20055;-80
2022/04/11 09:11:37;;;;;;;7.93;1.77;;;9.50;99.90;;;;;;5051281;28;20064;-80
2022/04/11 09:14:08;;;;;;;11.70;2.28;;;9.70;99.90;;;;;;5038980;28;20060;-81
2022/04/11 09:16:49;;;;;;;8.50;1.88;;;9.40;99.90;;;;;;5050717;28;20402;-84
2022/04/11 09:19:27;;;;;;;4.30;1.30;;;9.30;99.90;;;;;;5050226;28;20064;-80
2022/04/11 09:21:57;;;;;;;5.85;1.50;;;9.40;99.90;;;;;;5069855;28;20397;-84
2022/04/11 09:24:25;;;;;;;6.15;1.27;;;9.40;99.90;;;;;;5037748;28;20045;-85
2022/04/11 09:26:54;;;;;;;5.70;1.50;;;9.50;99.90;;;;;;5036421;28;20079;-84
2022/04/11 09:29:20;;;;;;;4.78;1.42;;;10.00;99.90;;;;;;5036910;28;20392;-84
2022/04/11 09:31:46;;;;;;;8.20;1.40;;;9.50;99.90;;;;;;5036560;28;20048;-84
2022/04/11 09:34:17;;;;;;;4.40;1.30;;;9.50;99.90;;;;;;5052356;28;20028;-84
2022/04/11 09:36:51;;;;;;;5.53;1.42;;;9.60;99.90;;;;;;5025009;28;20037;-84
2022/04/11 09:39:28;;;;;;;4.40;1.35;;;9.50;99.90;;;;;;5036433;28;20098;-84
2022/04/11 09:41:55;;;;;;;5.35;1.42;;;9.60;99.90;;;;;;5027876;28;20136;-83
2022/04/11 09:44:25;;;;;;;5.90;1.17;;;9.90;99.90;;;;;;5016923;28;20468;-83
2022/04/11 09:46:53;;;;;;;5.38;1.40;;;9.80;99.90;;;;;;5034478;28;20375;-83
2022/04/11 09:49:19;;;;;;;5.88;1.52;;;9.90;99.90;;;;;;5032591;28;20486;-84
2022/04/11 09:52:04;;;;;;;5.97;1.92;;;10.00;99.90;;;;;;5053535;28;20127;-84
2022/04/11 09:54:30;;;;;;;4.93;1.70;;;10.10;99.90;;;;;;5053450;28;20118;-84
2022/04/11 09:57:00;;;;;;;5.05;1.70;;;10.60;99.90;;;;;;5036815;28;20459;-84
2022/04/11 09:59:26;;;;;;;5.50;1.60;;;10.60;99.90;;;;;;5071780;28;20051;-83
2022/04/11 10:01:54;;;;;;;4.30;1.35;;;11.20;99.90;;;;;;5053727;28;20044;-83
2022/04/11 10:04:21;;;;;;;6.10;1.83;;;10.60;99.90;;;;;;5037631;28;20124;-84
2022/04/11 10:06:47;;;;;;;6.25;1.67;;;10.90;99.90;;;;;;5048973;28;20044;-83
2022/04/11 10:09:14;;;;;;;5.45;1.42;;;10.90;99.90;;;;;;5034208;28;20048;-83
2022/04/11 10:11:44;;;;;;;2.58;1.20;;;10.90;99.90;;;;;;5047929;28;20098;-85
2022/04/11 10:14:11;;;;;;;3.50;1.50;;;11.40;99.90;;;;;;5053623;28;20048;-83
2022/04/11 10:16:44;;;;;;;5.75;1.60;;;11.00;99.90;;;;;;5053502;28;20040;-84
2022/04/11 10:19:13;;;;;;;4.68;1.80;;;11.40;99.90;;;;;;5052080;28;20105;-83
2022/04/11 10:21:43;;;;;;;5.05;1.50;;;12.00;99.90;;;;;;5037050;28;20096;-83
2022/04/11 10:24:35;;;;;;;7.03;1.70;;;11.60;99.90;;;;;;5053225;28;20056;-83
2022/04/11 10:27:34;;;;;;;4.55;1.25;;;11.80;99.90;;;;;;5052920;28;20136;-84
2022/04/11 10:30:03;;;;;;;4.88;1.75;;;11.80;99.90;;;;;;4963856;28;20130;-84
2022/04/11 10:32:30;;;;;;;5.10;1.38;;;12.10;99.90;;;;;;4973015;28;20050;-83
2022/04/11 10:34:57;;;;;;;4.03;1.60;;;12.20;99.90;;;;;;4952622;28;20054;-83
2022/04/11 10:37:27;;;;;;;5.28;1.80;;;12.50;99.90;;;;;;4971590;28;20070;-82
2022/04/11 10:40:13;;;;;;;4.80;1.80;;;12.70;99.90;;;;;;4981691;28;20042;-83
2022/04/11 10:42:58;;;;;;;6.07;1.98;;;12.80;99.90;;;;;;4985946;28;20130;-83
2022/04/11 10:45:35;;;;;;;4.90;2.15;;;12.90;98.90;;;;;;4971073;28;20054;-83
2022/04/11 10:48:02;;;;;;;6.72;1.85;;;13.10;99.90;;;;;;4955568;28;20181;-82
2022/04/11 10:50:32;;;;;;;5.63;1.83;;;13.40;99.70;;;;;;4954205;28;20088;-82
2022/04/11 10:53:10;;;;;;;6.32;2.00;;;13.40;99.60;;;;;;4966005;28;20086;-82
2022/04/11 10:55:52;;;;;;;4.90;1.83;;;13.50;99.40;;;;;;4971574;28;20134;-83
2022/04/11 10:58:42;;;;;;;12.43;2.30;;;13.70;99.90;;;;;;4985987;28;20130;-85
2022/04/11 11:01:09;;;;;;;6.35;1.77;;;13.90;99.90;;;;;;4970395;28;20054;-83
2022/04/11 11:03:35;;;;;;;5.35;2.30;;;14.00;98.00;;;;;;4969960;28;20060;-82
2022/04/11 11:06:18;;;;;;;8.15;2.17;;;14.10;98.00;;;;;;5009945;28;20132;-84
2022/04/11 11:08:44;;;;;;;6.28;2.13;;;14.20;95.60;;;;;;5048030;28;20059;-83
2022/04/11 11:11:25;;;;;;;9.02;2.15;;;14.40;99.90;;;;;;5039176;28;20492;-84
2022/04/11 11:13:52;;;;;;;5.45;2.10;;;14.50;99.90;;;;;;5059422;28;20040;-84
2022/04/11 11:16:18;;;;;;;5.32;2.15;;;14.70;99.90;;;;;;5060395;28;20037;-84
2022/04/11 11:18:53;;;;;;;10.48;2.35;;;14.90;99.00;;;;;;5035890;28;20064;-84
2022/04/11 11:21:19;;;;;;;;;;;15.00;97.10;;;;;;5054147;28;20036;-84
2022/04/11 11:24:03;;;;;;;6.35;2.20;;;15.00;99.80;;;;;;5040928;28;19916;-84
2022/04/11 11:26:57;;;;;;;8.23;2.63;;;15.10;99.40;;;;;;5043883;28;20045;-84
2022/04/11 11:29:43;;;;;;;7.18;2.50;;;15.30;98.60;;;;;;5025300;28;20485;-84
2022/04/11 11:32:12;;;;;;;5.00;2.22;;;15.30;97.60;;;;;;5057334;28;20053;-84
2022/04/11 11:34:42;;;;;;;6.05;2.25;;;15.70;99.90;;;;;;5036648;28;20328;-84
2022/04/11 11:37:13;;;;;;;7.60;2.30;;;15.70;97.50;;;;;;5051721;28;20048;-84
2022/04/11 11:39:40;;;;;;;6.80;2.58;;;15.60;93.10;;;;;;5056260;28;20060;-84
2022/04/11 11:42:11;;;;;;;4.72;2.15;;;15.60;94.40;;;;;;5073394;28;20044;-84
2022/04/11 11:44:49;;;;;;;5.95;2.40;;;15.70;95.70;;;;;;5038865;28;20045;-84
2022/04/11 11:47:15;;;;;;;6.68;2.60;;;15.70;94.40;;;;;;5056006;28;20040;-84
2022/04/11 11:49:49;;;;;;;7.47;2.63;;;15.90;97.10;;;;;;5056374;28;20048;-84
2022/04/11 11:52:16;;;;;;;6.88;2.67;;;16.10;94.80;;;;;;5040052;28;20040;-84
2022/04/11 11:55:23;;;;;;;6.05;2.80;;;16.20;96.40;;;;;;5057363;28;20029;-85
2022/04/11 11:58:05;;;;;;;5.18;2.40;;;16.20;96.60;;;;;;5055634;28;20365;-85
2022/04/11 12:00:34;;;;;;;5.78;2.33;;;16.40;97.00;;;;;;5056856;28;20070;-85
2022/04/11 12:05:45;;;;;;;7.72;2.53;;;16.60;94.00;;;;;;5075004;28;20055;-84
2022/04/11 12:08:13;;;;;;;5.57;2.58;;;16.50;92.60;;;;;;5056945;28;20044;-84
2022/04/11 12:10:40;;;;;;;6.18;2.42;;;16.90;96.00;;;;;;5066411;28;20059;-85
2022/04/11 12:13:06;;;;;;;4.40;2.35;;;17.10;94.70;;;;;;5074148;28;20040;-83
2022/04/11 12:15:34;;;;;;;4.53;2.17;;;17.20;94.10;;;;;;5058049;28;20036;-83
2022/04/11 12:18:02;;;;;;;4.35;2.20;;;17.10;88.70;;;;;;5074086;28;20173;-83
2022/04/11 12:20:30;;;;;;;8.73;2.40;;;16.70;89.40;;;;;;5055846;28;20156;-84
2022/04/11 12:23:11;;;;;;;3.03;2.08;;;17.00;93.30;;;;;;5056965;28;20119;-83
2022/04/11 12:25:37;;;;;;;5.50;2.42;;;17.20;90.90;;;;;;5039434;28;20056;-82
2022/04/11 12:28:24;;;;;;;4.32;2.55;;;16.70;87.80;;;;;;5040018;28;20124;-81
2022/04/11 12:31:02;;;;;;;4.13;2.35;;;17.20;91.50;;;;;;5057492;28;20170;-87
2022/04/11 12:33:36;;;;;;;6.00;2.20;;;17.40;88.90;;;;;;5052043;28;20042;-83
2022/04/11 12:36:08;;;;;;;9.30;2.85;;;17.50;86.20;;;;;;5037178;28;20055;-86
2022/04/11 12:38:53;;;;;;;4.90;2.50;;;17.30;86.40;;;;;;5046214;28;20051;-83
2022/04/11 12:41:32;;;;;;;8.48;2.13;;;17.60;90.50;;;;;;5031826;28;20049;-83
2022/04/11 12:44:09;;;;;;;5.10;2.53;;;17.80;85.10;;;;;;5038048;28;20412;-85
2022/04/11 12:46:45;;;;;;;5.35;2.35;;;17.40;82.00;;;;;;5039561;28;20092;-84
2022/04/11 12:49:18;;;;;;;4.85;2.25;;;17.80;83.40;;;;;;5038754;28;20053;-84
2022/04/11 12:51:58;;;;;;;4.30;2.28;;;17.80;88.40;;;;;;5055586;28;20363;-82
2022/04/11 12:54:38;;;;;;;6.28;2.47;;;18.10;88.60;;;;;;5035646;28;20123;-83
2022/04/11 12:57:04;;;;;;;8.38;2.50;;;18.20;84.10;;;;;;5030911;28;20103;-83
2022/04/11 12:59:32;;;;;;;4.60;2.40;;;18.40;85.70;;;;;;5036294;28;20167;-82
2022/04/11 13:02:03;;;;;;;6.45;2.30;;;17.60;81.60;;;;;;5054573;28;20049;-83
2022/04/11 13:04:29;;;;;;;4.68;2.30;;;17.60;79.10;;;;;;5035820;28;20059;-81